createdAt,value
2022-08-05T00:00:16.205Z,19.70
2022-08-05T00:02:50.470Z,19.60
2022-08-05T00:06:02.039Z,19.60
2022-08-05T00:08:19.852Z,19.60
2022-08-05T00:11:01.344Z,19.50
2022-08-05T00:13:39.221Z,19.50
2022-08-05T00:16:10.841Z,19.40
2022-08-05T00:18:40.191Z,19.40
2022-08-05T00:21:09.107Z,19.40
2022-08-05T00:23:46.009Z,19.30
2022-08-05T00:26:20.732Z,19.30
2022-08-05T00:28:49.505Z,19.30
2022-08-05T00:31:16.554Z,19.30
2022-08-05T00:34:55.331Z,19.30
2022-08-05T00:37:10.574Z,19.20
2022-08-05T00:39:41.546Z,19.20
2022-08-05T00:42:11.579Z,19.20
2022-08-05T00:44:58.549Z,19.20
2022-08-05T00:47:26.175Z,19.20
2022-08-05T00:49:58.696Z,19.20
2022-08-05T00:52:28.531Z,19.10
2022-08-05T00:54:55.986Z,19.10
2022-08-05T00:57:25.387Z,19.10
2022-08-05T01:00:11.004Z,19.00
2022-08-05T01:02:38.512Z,19.00
2022-08-05T01:05:10.106Z,19.00
2022-08-05T01:07:37.099Z,18.90
2022-08-05T01:10:34.795Z,18.90
2022-08-05T01:13:13.244Z,18.80
2022-08-05T01:15:53.381Z,18.80
2022-08-05T01:18:24.051Z,18.80
2022-08-05T01:20:57.448Z,18.70
2022-08-05T01:23:35.152Z,18.70
2022-08-05T01:26:02.090Z,18.60
2022-08-05T01:28:29.079Z,18.60
2022-08-05T01:31:11.548Z,18.60
2022-08-05T01:33:42.038Z,18.50
2022-08-05T01:36:17.521Z,18.50
2022-08-05T01:38:49.926Z,18.40
2022-08-05T01:41:20.994Z,18.40
2022-08-05T01:43:50.223Z,18.40
2022-08-05T01:46:42.002Z,18.30
2022-08-05T01:49:22.617Z,18.30
2022-08-05T01:51:58.458Z,18.30
2022-08-05T01:54:29.190Z,18.30
2022-08-05T01:58:13.082Z,18.30
2022-08-05T01:59:47.016Z,18.30
2022-08-05T02:02:15.959Z,18.30
2022-08-05T02:04:46.309Z,18.20
2022-08-05T02:07:21.950Z,18.20
2022-08-05T02:09:50.862Z,18.20
2022-08-05T02:12:25.251Z,18.20
2022-08-05T02:15:15.639Z,18.20
2022-08-05T02:18:33.209Z,18.20
2022-08-05T02:20:52.640Z,18.10
2022-08-05T02:23:22.417Z,18.10
2022-08-05T02:25:50.647Z,18.10
2022-08-05T02:28:28.443Z,18.10
2022-08-05T02:31:02.083Z,18.00
2022-08-05T02:33:35.891Z,18.00
2022-08-05T02:36:09.392Z,18.00
2022-08-05T02:38:37.243Z,18.00
2022-08-05T02:41:14.535Z,18.00
2022-08-05T02:44:02.964Z,18.00
2022-08-05T02:46:53.255Z,17.90
2022-08-05T02:49:27.424Z,18.00
2022-08-05T02:52:07.683Z,17.90
2022-08-05T02:54:37.396Z,17.90
2022-08-05T02:57:10.077Z,17.90
2022-08-05T02:59:55.805Z,17.90
2022-08-05T03:02:27.569Z,17.80
2022-08-05T03:04:55.555Z,17.80
2022-08-05T03:07:59.248Z,17.80
2022-08-05T03:10:14.806Z,17.80
2022-08-05T03:12:42.553Z,17.70
2022-08-05T03:15:10.281Z,17.70
2022-08-05T03:17:41.978Z,17.70
2022-08-05T03:20:11.930Z,17.70
2022-08-05T03:22:44.056Z,17.70
2022-08-05T03:25:33.079Z,17.70
2022-08-05T03:28:06.500Z,17.70
2022-08-05T03:30:35.739Z,17.60
2022-08-05T03:33:03.317Z,17.70
2022-08-05T03:35:33.677Z,17.70
2022-08-05T03:38:01.117Z,17.60
2022-08-05T03:40:32.210Z,17.70
2022-08-05T03:43:01.515Z,17.60
2022-08-05T03:45:57.347Z,17.60
2022-08-05T03:48:27.428Z,17.60
2022-08-05T03:52:37.398Z,17.60
2022-08-05T03:55:51.034Z,17.60
2022-08-05T03:56:54.312Z,17.70
2022-08-05T03:59:46.856Z,17.70
2022-08-05T04:02:38.358Z,17.70
2022-08-05T04:05:10.619Z,17.80
2022-08-05T04:07:57.086Z,17.80
2022-08-05T04:10:33.335Z,17.80
2022-08-05T04:13:05.925Z,17.80
2022-08-05T04:15:36.251Z,17.90
2022-08-05T04:18:09.276Z,18.00
2022-08-05T04:20:36.906Z,18.10
2022-08-05T04:23:03.891Z,18.10
2022-08-05T04:25:57.496Z,18.30
2022-08-05T04:28:18.094Z,18.30
2022-08-05T04:30:45.496Z,18.50
2022-08-05T04:33:13.954Z,18.60
2022-08-05T04:36:15.957Z,18.70
2022-08-05T04:38:39.463Z,18.80
2022-08-05T04:41:09.556Z,18.90
2022-08-05T04:43:37.909Z,19.10
2022-08-05T04:46:13.633Z,19.10
2022-08-05T04:48:54.831Z,19.20
2022-08-05T04:51:23.724Z,19.20
2022-08-05T04:53:50.636Z,19.30
2022-08-05T04:56:34.612Z,19.30
2022-08-05T04:59:21.626Z,19.30
2022-08-05T05:02:35.135Z,19.40
2022-08-05T05:04:47.898Z,19.50
2022-08-05T05:07:18.342Z,19.50
2022-08-05T05:09:56.629Z,19.60
2022-08-05T05:12:27.343Z,19.60
2022-08-05T05:14:54.490Z,19.50
2022-08-05T05:17:24.493Z,19.50
2022-08-05T05:20:09.036Z,19.60
2022-08-05T05:22:36.193Z,19.50
2022-08-05T05:25:17.101Z,19.50
2022-08-05T05:27:53.640Z,19.50
2022-08-05T05:30:29.247Z,19.60
2022-08-05T05:33:09.121Z,20.10
2022-08-05T05:35:44.803Z,20.90
2022-08-05T05:38:13.223Z,21.90
2022-08-05T05:40:49.700Z,22.80
2022-08-05T05:43:27.918Z,23.70
2022-08-05T05:46:13.798Z,24.50
2022-08-05T05:48:48.294Z,25.30
2022-08-05T05:51:25.645Z,26.00
2022-08-05T05:53:57.337Z,26.70
2022-08-05T05:56:32.470Z,27.20
2022-08-05T05:59:03.485Z,27.80
2022-08-05T06:01:37.654Z,28.10
2022-08-05T06:04:06.407Z,28.40
2022-08-05T06:06:34.947Z,28.50
2022-08-05T06:09:03.923Z,28.50
2022-08-05T06:11:32.582Z,28.60
2022-08-05T06:14:01.104Z,28.60
2022-08-05T06:16:33.047Z,28.60
2022-08-05T06:19:05.618Z,28.60
2022-08-05T06:21:36.554Z,28.60
2022-08-05T06:24:06.073Z,28.50
2022-08-05T06:26:52.101Z,28.40
2022-08-05T06:29:23.714Z,28.30
2022-08-05T06:32:25.494Z,28.30
2022-08-05T06:34:55.327Z,28.20
2022-08-05T06:37:56.059Z,28.20
2022-08-05T06:40:18.434Z,28.20
2022-08-05T06:42:52.155Z,28.30
2022-08-05T06:45:20.651Z,28.30
2022-08-05T06:48:37.079Z,28.40
2022-08-05T06:50:35.524Z,28.50
2022-08-05T06:53:11.183Z,28.60
2022-08-05T06:55:46.403Z,28.70
2022-08-05T06:58:30.169Z,28.90
2022-08-05T07:01:04.158Z,29.00
2022-08-05T07:03:33.273Z,29.10
2022-08-05T07:06:06.248Z,29.20
2022-08-05T07:08:47.847Z,29.30
2022-08-05T07:11:22.416Z,29.50
2022-08-05T07:14:20.298Z,29.60
2022-08-05T07:17:56.227Z,29.80
2022-08-05T07:22:28.421Z,30.00
2022-08-05T07:25:23.803Z,30.20
2022-08-05T07:27:58.444Z,30.40
2022-08-05T07:30:38.902Z,30.50
2022-08-05T07:33:09.462Z,30.60
2022-08-05T07:36:04.910Z,30.80
2022-08-05T07:38:34.512Z,30.90
2022-08-05T07:42:08.399Z,31.00
2022-08-05T07:43:57.560Z,31.10
2022-08-05T07:46:26.612Z,31.20
2022-08-05T07:49:02.810Z,31.30
2022-08-05T07:51:48.807Z,31.30
2022-08-05T07:54:23.326Z,31.10
2022-08-05T07:57:01.770Z,31.00
2022-08-05T07:59:41.046Z,30.80
2022-08-05T08:02:17.131Z,30.70
2022-08-05T08:04:49.245Z,30.90
2022-08-05T08:07:22.849Z,31.10
2022-08-05T08:09:52.428Z,31.40
2022-08-05T08:12:35.236Z,31.70
2022-08-05T08:15:09.775Z,31.80
2022-08-05T08:17:52.471Z,32.10
2022-08-05T08:20:59.740Z,32.20
2022-08-05T08:23:59.683Z,32.30
2022-08-05T08:26:00.896Z,32.50
2022-08-05T08:28:36.730Z,32.70
2022-08-05T08:31:18.376Z,32.80
2022-08-05T08:33:45.539Z,32.90
2022-08-05T08:36:38.646Z,32.90
2022-08-05T08:39:01.762Z,32.90
2022-08-05T08:41:51.873Z,33.00
2022-08-05T08:45:16.389Z,33.00
2022-08-05T08:47:47.626Z,33.10
2022-08-05T08:50:14.209Z,33.20
2022-08-05T08:52:47.435Z,33.00
2022-08-05T08:56:02.077Z,33.00
2022-08-05T08:58:06.759Z,32.90
2022-08-05T09:00:37.853Z,32.90
2022-08-05T09:03:05.820Z,32.90
2022-08-05T09:05:38.642Z,33.00
2022-08-05T09:08:26.622Z,32.90
2022-08-05T09:10:54.793Z,33.00
2022-08-05T09:13:21.597Z,32.80
2022-08-05T09:15:51.039Z,32.60
2022-08-05T09:18:18.108Z,32.40
2022-08-05T09:20:45.882Z,32.40
2022-08-05T09:23:19.017Z,32.30
2022-08-05T09:26:00.898Z,32.20
2022-08-05T09:28:33.422Z,32.20
2022-08-05T09:31:22.661Z,32.20
2022-08-05T09:33:59.189Z,32.20
2022-08-05T09:36:45.651Z,32.30
2022-08-05T09:39:27.610Z,32.30
2022-08-05T09:42:17.759Z,32.20
2022-08-05T09:44:56.003Z,32.30
2022-08-05T09:47:25.160Z,32.40
2022-08-05T09:50:00.500Z,32.40
2022-08-05T09:52:31.733Z,32.50
2022-08-05T09:55:00.461Z,32.50
2022-08-05T09:57:47.892Z,32.40
2022-08-05T10:00:24.566Z,32.50
2022-08-05T10:02:54.628Z,32.60
2022-08-05T10:05:26.706Z,32.60
2022-08-05T10:08:34.509Z,32.50
2022-08-05T10:10:44.465Z,32.60
2022-08-05T10:13:11.919Z,32.60
2022-08-05T10:15:41.661Z,32.70
2022-08-05T10:22:15.788Z,32.80
2022-08-05T10:24:56.715Z,32.90
2022-08-05T10:27:26.362Z,33.00
2022-08-05T10:32:48.751Z,33.10
2022-08-05T10:33:02.761Z,33.20
2022-08-05T10:35:33.700Z,33.20
2022-08-05T10:38:08.403Z,33.20
2022-08-05T10:40:45.026Z,33.10
2022-08-05T10:43:15.344Z,33.20
2022-08-05T10:45:42.513Z,33.30
2022-08-05T10:48:52.848Z,33.20
2022-08-05T10:51:23.042Z,33.10
2022-08-05T10:53:58.583Z,32.90
2022-08-05T10:56:29.746Z,33.10
2022-08-05T10:59:12.220Z,33.10
2022-08-05T11:01:54.900Z,33.10
2022-08-05T11:04:30.961Z,33.20
2022-08-05T11:07:00.624Z,33.20
2022-08-05T11:09:39.512Z,33.30
2022-08-05T11:12:32.558Z,33.30
2022-08-05T11:15:19.787Z,33.40
2022-08-05T11:17:58.883Z,33.40
2022-08-05T11:20:41.611Z,33.40
2022-08-05T11:23:49.838Z,33.40
2022-08-05T11:26:28.626Z,33.60
2022-08-05T11:29:06.794Z,33.60
2022-08-05T11:31:56.930Z,33.60
2022-08-05T11:34:47.503Z,33.40
2022-08-05T11:38:30.467Z,33.40
2022-08-05T11:40:50.758Z,33.50
2022-08-05T11:43:21.422Z,33.50
2022-08-05T11:46:15.397Z,33.60
2022-08-05T11:48:56.664Z,33.50
2022-08-05T11:51:44.460Z,33.70
2022-08-05T11:54:22.714Z,33.80
2022-08-05T11:57:08.700Z,33.80
2022-08-05T11:59:51.165Z,33.80
2022-08-05T12:02:23.901Z,34.00
2022-08-05T12:04:59.293Z,33.90
2022-08-05T12:08:04.413Z,33.80
2022-08-05T12:10:22.910Z,33.90
2022-08-05T12:12:59.921Z,33.80
2022-08-05T12:15:37.803Z,33.90
2022-08-05T12:18:10.986Z,33.90
2022-08-05T12:20:39.146Z,33.90
2022-08-05T12:23:10.646Z,33.90
2022-08-05T12:25:56.743Z,34.00
2022-08-05T12:28:50.153Z,33.90
2022-08-05T12:31:23.384Z,33.90
2022-08-05T12:34:01.670Z,33.90
2022-08-05T12:36:30.462Z,33.90
2022-08-05T12:38:58.754Z,33.80
2022-08-05T12:41:34.566Z,33.80
2022-08-05T12:44:14.280Z,33.70
2022-08-05T12:46:45.449Z,33.60
2022-08-05T12:49:16.055Z,33.40
2022-08-05T12:52:13.860Z,33.40
2022-08-05T12:54:35.553Z,33.40
2022-08-05T12:57:09.583Z,33.30
2022-08-05T13:01:56.894Z,33.40
2022-08-05T13:02:40.235Z,33.40
2022-08-05T13:05:08.173Z,33.50
2022-08-05T13:10:31.685Z,33.50
2022-08-05T13:12:58.859Z,33.60
2022-08-05T13:15:41.968Z,33.70
2022-08-05T13:18:24.329Z,33.70
2022-08-05T13:20:53.078Z,33.80
2022-08-05T13:23:50.761Z,33.80
2022-08-05T13:26:22.874Z,33.90
2022-08-05T13:28:57.455Z,33.90
2022-08-05T13:32:03.506Z,34.10
2022-08-05T13:34:25.925Z,34.20
2022-08-05T13:36:54.415Z,34.20
2022-08-05T13:39:24.407Z,34.30
2022-08-05T13:42:14.338Z,34.30
2022-08-05T13:44:46.040Z,34.20
2022-08-05T13:47:35.598Z,34.10
2022-08-05T13:50:04.486Z,34.00
2022-08-05T13:52:35.348Z,33.80
2022-08-05T13:55:07.669Z,33.80
2022-08-05T13:57:51.573Z,33.70
2022-08-05T14:00:26.837Z,33.70
2022-08-05T14:02:56.330Z,33.60
2022-08-05T14:05:48.314Z,33.50
2022-08-05T14:08:20.698Z,33.50
2022-08-05T14:10:49.156Z,33.40
2022-08-05T14:13:16.456Z,33.40
2022-08-05T14:16:04.719Z,33.30
2022-08-05T14:18:32.862Z,33.30
2022-08-05T14:21:00.608Z,33.30
2022-08-05T14:23:47.944Z,33.20
2022-08-05T14:26:38.476Z,33.20
2022-08-05T14:29:04.309Z,33.30
2022-08-05T14:32:03.751Z,33.30
2022-08-05T14:34:30.091Z,33.30
2022-08-05T14:37:02.701Z,33.30
2022-08-05T14:39:29.720Z,33.40
2022-08-05T14:42:22.798Z,33.30
2022-08-05T14:44:51.887Z,33.30
2022-08-05T14:47:58.295Z,33.30
2022-08-05T14:50:14.236Z,33.30
2022-08-05T14:52:53.139Z,33.30
2022-08-05T14:55:20.954Z,33.20
2022-08-05T14:57:56.184Z,33.10
2022-08-05T15:00:29.936Z,33.00
2022-08-05T15:02:59.537Z,32.90
2022-08-05T15:05:30.072Z,32.90
2022-08-05T15:08:58.381Z,32.80
2022-08-05T15:11:04.094Z,32.70
2022-08-05T15:13:45.967Z,32.50
2022-08-05T15:16:19.082Z,32.50
2022-08-05T15:18:47.279Z,32.40
2022-08-05T15:21:14.356Z,32.40
2022-08-05T15:23:48.040Z,32.40
2022-08-05T15:26:17.547Z,32.30
2022-08-05T15:28:59.325Z,32.30
2022-08-05T15:31:35.062Z,32.30
2022-08-05T15:34:18.469Z,32.30
2022-08-05T15:36:52.521Z,32.30
2022-08-05T15:41:00.098Z,32.20
2022-08-05T15:42:54.651Z,32.30
2022-08-05T15:45:12.412Z,32.30
2022-08-05T15:47:48.804Z,32.40
2022-08-05T15:56:26.271Z,32.70
2022-08-05T15:59:57.562Z,32.70
2022-08-05T16:02:26.211Z,32.70
2022-08-05T16:05:11.784Z,32.80
2022-08-05T16:07:39.163Z,32.70
2022-08-05T16:13:39.285Z,32.60
2022-08-05T16:16:10.847Z,32.60
2022-08-05T16:18:52.443Z,32.70
2022-08-05T16:21:58.478Z,32.70
2022-08-05T16:24:12.899Z,32.60
2022-08-05T16:26:58.288Z,32.70
2022-08-05T16:29:26.841Z,32.80
2022-08-05T16:32:01.370Z,33.00
2022-08-05T16:34:31.557Z,33.00
2022-08-05T16:36:58.622Z,33.00
2022-08-05T16:40:05.917Z,33.00
2022-08-05T16:42:17.559Z,33.10
2022-08-05T16:44:54.042Z,33.10
2022-08-05T16:47:28.661Z,33.00
2022-08-05T16:50:06.016Z,33.00
2022-08-05T16:52:33.447Z,32.90
2022-08-05T16:55:00.632Z,32.80
2022-08-05T16:57:53.231Z,32.70
2022-08-05T17:00:26.033Z,32.60
2022-08-05T17:03:02.528Z,32.50
2022-08-05T17:05:31.671Z,32.40
2022-08-05T17:07:58.961Z,32.30
2022-08-05T17:10:26.505Z,32.20
2022-08-05T17:12:59.419Z,32.20
2022-08-05T17:18:28.196Z,32.00
2022-08-05T17:21:05.582Z,31.90
2022-08-05T17:24:05.510Z,31.80
2022-08-05T17:26:19.806Z,31.70
2022-08-05T17:28:48.325Z,31.50
2022-08-05T17:31:24.387Z,31.50
2022-08-05T17:34:05.191Z,31.40
2022-08-05T17:36:36.085Z,31.30
2022-08-05T17:39:23.563Z,31.30
2022-08-05T17:42:18.955Z,31.10
2022-08-05T17:44:41.117Z,31.00
2022-08-05T17:47:21.891Z,30.90
2022-08-05T17:50:04.222Z,30.70
2022-08-05T17:52:52.706Z,30.60
2022-08-05T17:55:34.683Z,30.50
2022-08-05T17:58:09.816Z,30.30
2022-08-05T18:00:44.997Z,30.10
2022-08-05T18:06:12.098Z,29.90
2022-08-05T18:08:52.439Z,29.80
2022-08-05T18:11:24.052Z,29.70
2022-08-05T18:14:13.400Z,29.60
2022-08-05T18:16:53.374Z,29.50
2022-08-05T18:19:26.082Z,29.40
2022-08-05T18:22:08.646Z,29.30
2022-08-05T18:24:42.454Z,29.20
2022-08-05T18:27:18.386Z,29.10
2022-08-05T18:29:53.630Z,29.00
2022-08-05T18:32:28.398Z,28.90
2022-08-05T18:34:59.048Z,28.80
2022-08-05T18:37:34.278Z,28.80
2022-08-05T18:41:50.418Z,28.70
2022-08-05T18:42:56.027Z,28.50
2022-08-05T18:45:22.861Z,28.40
2022-08-05T18:47:56.778Z,28.30
2022-08-05T18:50:46.459Z,28.30
2022-08-05T18:53:20.795Z,28.20
2022-08-05T18:55:51.523Z,28.10
2022-08-05T18:58:27.004Z,28.00
2022-08-05T19:00:56.330Z,27.90
2022-08-05T19:03:55.698Z,27.80
2022-08-05T19:06:18.940Z,27.80
2022-08-05T19:08:49.046Z,27.70
2022-08-05T19:11:16.182Z,27.60
2022-08-05T19:14:00.767Z,27.60
2022-08-05T19:16:34.336Z,27.60
2022-08-05T19:19:13.818Z,27.50
2022-08-05T19:21:40.676Z,27.40
2022-08-05T19:24:12.948Z,27.30
2022-08-05T19:26:54.344Z,27.30
2022-08-05T19:29:22.222Z,27.30
2022-08-05T19:31:57.360Z,27.20
2022-08-05T19:34:24.934Z,27.10
2022-08-05T19:36:51.929Z,27.10
2022-08-05T19:39:20.146Z,27.00
2022-08-05T19:42:06.134Z,27.00
2022-08-05T19:44:44.701Z,27.00
2022-08-05T19:47:12.638Z,26.90
2022-08-05T19:49:44.057Z,26.90
2022-08-05T19:52:30.792Z,26.80
2022-08-05T19:55:07.099Z,26.80
2022-08-05T19:58:06.753Z,26.70
2022-08-05T20:00:35.835Z,26.70
2022-08-05T20:03:08.492Z,26.70
2022-08-05T20:05:49.899Z,26.60
2022-08-05T20:08:18.964Z,26.60
2022-08-05T20:10:49.364Z,26.60
2022-08-05T20:13:17.154Z,26.50
2022-08-05T20:15:52.620Z,26.50
2022-08-05T20:18:33.186Z,26.40
2022-08-05T20:21:04.528Z,26.40
2022-08-05T20:23:40.103Z,26.40
2022-08-05T20:26:19.389Z,26.40
2022-08-05T20:28:48.876Z,26.30
2022-08-05T20:31:16.932Z,26.30
2022-08-05T20:33:45.010Z,26.30
2022-08-05T20:36:12.315Z,26.30
2022-08-05T20:38:53.716Z,26.30
2022-08-05T20:41:27.428Z,26.20
2022-08-05T20:44:17.422Z,26.20
2022-08-05T20:46:50.509Z,26.10
2022-08-05T20:49:24.346Z,25.90
2022-08-05T20:51:54.011Z,25.70
2022-08-05T20:54:24.735Z,25.50
2022-08-05T20:56:52.475Z,25.30
2022-08-05T20:59:26.962Z,25.20
2022-08-05T21:02:08.168Z,25.00
2022-08-05T21:04:36.503Z,24.80
2022-08-05T21:07:04.666Z,24.70
2022-08-05T21:09:31.710Z,24.60
2022-08-05T21:12:09.345Z,24.50
2022-08-05T21:14:40.124Z,24.40
2022-08-05T21:17:07.218Z,24.30
2022-08-05T21:19:47.444Z,24.20
2022-08-05T21:22:18.359Z,24.10
2022-08-05T21:24:48.870Z,23.80
2022-08-05T21:27:18.316Z,23.40
2022-08-05T21:29:50.993Z,23.20
2022-08-05T21:32:26.795Z,22.90
2022-08-05T21:35:17.728Z,22.70
2022-08-05T21:37:47.016Z,22.40
2022-08-05T21:40:14.559Z,22.20
2022-08-05T21:42:44.966Z,21.80
2022-08-05T21:45:25.206Z,21.60
2022-08-05T21:48:06.592Z,21.40
2022-08-05T21:50:37.332Z,21.20
2022-08-05T21:53:16.603Z,21.10
2022-08-05T21:56:05.369Z,21.00
2022-08-05T21:58:42.062Z,20.90
2022-08-05T22:01:11.397Z,20.90
2022-08-05T22:03:52.970Z,20.90
2022-08-05T22:06:35.132Z,20.90
2022-08-05T22:09:13.847Z,20.90
2022-08-05T22:11:46.793Z,20.90
2022-08-05T22:14:35.140Z,20.90
2022-08-05T22:17:03.734Z,20.80
2022-08-05T22:19:57.246Z,20.90
2022-08-05T22:22:27.625Z,20.90
2022-08-05T22:25:18.000Z,20.90
2022-08-05T22:28:11.140Z,20.90
2022-08-05T22:30:53.533Z,20.90
2022-08-05T22:33:57.662Z,20.90
2022-08-05T22:36:14.749Z,20.80
2022-08-05T22:38:42.831Z,20.80
2022-08-05T22:41:10.343Z,20.80
2022-08-05T22:43:38.136Z,20.80
2022-08-05T22:46:12.120Z,20.80
2022-08-05T22:48:41.992Z,20.80
2022-08-05T22:51:16.132Z,20.80
2022-08-05T22:53:51.819Z,20.80
2022-08-05T22:56:30.721Z,20.80
2022-08-05T22:59:00.092Z,20.80
2022-08-05T23:01:50.853Z,20.80
2022-08-05T23:04:18.083Z,20.70
2022-08-05T23:06:45.517Z,20.70
2022-08-05T23:09:27.315Z,20.70
2022-08-05T23:12:02.172Z,20.60
2022-08-05T23:14:32.412Z,20.60
2022-08-05T23:17:24.333Z,20.60
2022-08-05T23:19:58.361Z,20.60
2022-08-05T23:22:27.416Z,20.50
2022-08-05T23:24:54.622Z,20.50
2022-08-05T23:27:42.453Z,20.50
2022-08-05T23:30:18.232Z,20.40
2022-08-05T23:32:45.439Z,20.40
2022-08-05T23:35:12.740Z,20.30
2022-08-05T23:37:39.579Z,20.30
2022-08-05T23:40:07.455Z,20.30
2022-08-05T23:42:37.366Z,20.30
2022-08-05T23:45:14.372Z,20.20
2022-08-05T23:47:47.767Z,20.30
2022-08-05T23:50:15.152Z,20.20
2022-08-05T23:52:50.065Z,20.20
2022-08-05T23:55:19.277Z,20.20
2022-08-05T23:57:49.037Z,20.10
